createdAt,value
2019-02-18T00:01:58.518Z,15.75
2019-02-18T00:04:26.705Z,15.58
2019-02-18T00:06:54.862Z,16.85
2019-02-18T00:09:22.973Z,16.42
2019-02-18T00:11:52.129Z,16.23
2019-02-18T00:14:20.594Z,14.43
2019-02-18T00:16:48.781Z,15.53
2019-02-18T00:19:17.682Z,17.15
2019-02-18T00:21:45.860Z,15.30
2019-02-18T00:24:14.008Z,14.55
2019-02-18T00:26:43.513Z,14.98
2019-02-18T00:29:11.705Z,15.83
2019-02-18T00:31:40.461Z,15.50
2019-02-18T00:34:08.651Z,15.72
2019-02-18T00:36:37.956Z,17.20
2019-02-18T00:39:06.152Z,18.27
2019-02-18T00:41:34.633Z,17.02
2019-02-18T00:44:09.202Z,18.75
2019-02-18T00:46:37.434Z,18.93
2019-02-18T00:49:05.585Z,16.02
2019-02-18T00:51:34.295Z,14.47
2019-02-18T00:54:02.447Z,14.20
2019-02-18T00:56:32.683Z,15.65
2019-02-18T00:59:00.828Z,15.53
2019-02-18T01:01:29.012Z,15.20
2019-02-18T01:04:16.815Z,15.03
2019-02-18T01:06:45.029Z,16.20
2019-02-18T01:09:13.199Z,17.75
2019-02-18T01:11:41.659Z,22.02
2019-02-18T01:14:09.845Z,16.77
2019-02-18T01:16:38.018Z,14.70
2019-02-18T01:19:06.183Z,15.05
2019-02-18T01:21:34.985Z,15.83
2019-02-18T01:24:03.149Z,16.60
2019-02-18T01:26:31.327Z,14.93
2019-02-18T01:28:59.513Z,15.68
2019-02-18T01:31:27.685Z,15.18
2019-02-18T01:33:55.850Z,15.72
2019-02-18T01:36:24.046Z,15.80
2019-02-18T01:38:52.201Z,15.60
2019-02-18T01:41:20.371Z,13.65
2019-02-18T01:43:48.871Z,13.88
2019-02-18T01:46:17.017Z,13.95
2019-02-18T01:48:45.206Z,13.83
2019-02-18T01:51:13.386Z,14.63
2019-02-18T01:53:41.543Z,15.13
2019-02-18T01:56:10.006Z,15.28
2019-02-18T01:58:38.217Z,13.55
2019-02-18T02:01:06.988Z,14.18
2019-02-18T02:03:35.671Z,12.85
2019-02-18T02:06:03.826Z,13.23
2019-02-18T02:08:32.028Z,13.78
2019-02-18T02:11:00.184Z,14.05
2019-02-18T02:13:33.072Z,15.48
2019-02-18T02:16:04.315Z,14.15
2019-02-18T02:18:32.489Z,15.60
2019-02-18T02:21:00.659Z,14.38
2019-02-18T02:23:28.857Z,13.03
2019-02-18T02:25:57.384Z,13.38
2019-02-18T02:28:25.988Z,15.45
2019-02-18T02:30:56.120Z,13.13
2019-02-18T02:33:24.642Z,13.27
2019-02-18T02:35:52.783Z,14.70
2019-02-18T02:38:21.343Z,13.20
2019-02-18T02:40:49.536Z,14.40
2019-02-18T02:43:18.417Z,13.85
2019-02-18T02:45:46.581Z,12.60
2019-02-18T02:48:14.770Z,15.13
2019-02-18T02:50:42.937Z,13.68
2019-02-18T02:53:11.508Z,12.58
2019-02-18T02:55:39.696Z,13.13
2019-02-18T02:58:08.590Z,14.07
2019-02-18T03:00:36.760Z,13.70
2019-02-18T03:03:04.970Z,15.18
2019-02-18T03:05:33.115Z,14.38
2019-02-18T03:08:01.339Z,13.35
2019-02-18T03:10:29.466Z,13.35
2019-02-18T03:12:57.615Z,12.73
2019-02-18T03:15:25.819Z,13.10
2019-02-18T03:17:55.335Z,12.35
2019-02-18T03:20:23.875Z,13.62
2019-02-18T03:22:52.319Z,13.55
2019-02-18T03:25:24.934Z,12.95
2019-02-18T03:27:59.276Z,13.10
2019-02-18T03:30:38.807Z,11.63
2019-02-18T03:33:07.381Z,12.40
2019-02-18T03:35:35.562Z,11.68
2019-02-18T03:38:03.739Z,12.15
2019-02-18T03:40:31.923Z,12.03
2019-02-18T03:43:00.318Z,12.75
2019-02-18T03:45:29.113Z,13.22
2019-02-18T03:47:57.245Z,13.30
2019-02-18T03:50:25.425Z,13.32
2019-02-18T03:52:54.618Z,12.43
2019-02-18T03:55:23.185Z,13.05
2019-02-18T03:57:51.377Z,12.95
2019-02-18T04:00:19.609Z,14.10
2019-02-18T04:02:47.824Z,14.05
2019-02-18T04:05:16.029Z,12.03
2019-02-18T04:07:45.173Z,12.33
2019-02-18T04:10:13.392Z,12.33
2019-02-18T04:12:41.539Z,12.80
2019-02-18T04:15:09.776Z,12.50
2019-02-18T04:17:37.988Z,14.13
2019-02-18T04:20:06.568Z,12.43
2019-02-18T04:22:34.731Z,13.05
2019-02-18T04:25:02.928Z,11.90
2019-02-18T04:27:31.094Z,12.20
2019-02-18T04:29:59.645Z,12.25
2019-02-18T04:32:36.691Z,11.88
2019-02-18T04:35:04.916Z,13.03
2019-02-18T04:37:33.434Z,13.03
2019-02-18T04:40:01.978Z,11.20
2019-02-18T04:42:30.179Z,12.53
2019-02-18T04:44:58.711Z,12.37
2019-02-18T04:47:27.866Z,12.37
2019-02-18T04:49:56.016Z,12.90
2019-02-18T04:52:24.193Z,14.03
2019-02-18T04:54:52.361Z,13.85
2019-02-18T04:57:21.860Z,13.32
2019-02-18T04:59:50.044Z,13.38
2019-02-18T05:02:18.230Z,15.10
2019-02-18T05:04:46.392Z,13.38
2019-02-18T05:07:14.844Z,15.30
2019-02-18T05:09:43.045Z,14.43
2019-02-18T05:12:11.250Z,14.33
2019-02-18T05:14:42.551Z,14.07
2019-02-18T05:17:10.763Z,13.60
2019-02-18T05:19:38.905Z,13.72
2019-02-18T05:22:07.083Z,14.23
2019-02-18T05:24:35.669Z,14.35
2019-02-18T05:27:03.850Z,14.73
2019-02-18T05:29:32.009Z,14.00
2019-02-18T05:32:01.225Z,15.93
2019-02-18T05:34:34.046Z,15.13
2019-02-18T05:37:02.278Z,15.55
2019-02-18T05:39:30.451Z,15.80
2019-02-18T05:41:59.641Z,16.02
2019-02-18T05:44:27.830Z,15.30
2019-02-18T05:46:55.993Z,15.28
2019-02-18T05:49:24.164Z,15.32
2019-02-18T05:51:52.344Z,14.90
2019-02-18T05:54:21.532Z,13.83
2019-02-18T05:56:50.405Z,15.70
2019-02-18T05:59:18.596Z,14.23
2019-02-18T06:01:47.121Z,14.50
2019-02-18T06:04:15.257Z,14.18
2019-02-18T06:06:43.722Z,13.95
2019-02-18T06:09:11.899Z,13.62
2019-02-18T06:11:40.077Z,14.45
2019-02-18T06:14:08.249Z,15.13
2019-02-18T06:16:36.406Z,16.90
2019-02-18T06:19:04.589Z,14.47
2019-02-18T06:21:32.763Z,14.87
2019-02-18T06:24:00.954Z,15.95
2019-02-18T06:26:29.113Z,14.68
2019-02-18T06:29:16.662Z,16.52
2019-02-18T06:31:44.816Z,17.37
2019-02-18T06:34:13.000Z,18.15
2019-02-18T06:36:41.159Z,17.30
2019-02-18T06:39:09.744Z,16.57
2019-02-18T06:41:38.234Z,16.30
2019-02-18T06:44:06.397Z,14.35
2019-02-18T06:46:37.663Z,17.23
2019-02-18T06:49:15.369Z,18.17
2019-02-18T06:51:43.515Z,17.52
2019-02-18T06:54:12.711Z,17.42
2019-02-18T06:56:53.705Z,17.92
2019-02-18T06:59:35.713Z,18.62
2019-02-18T07:02:12.587Z,18.92
2019-02-18T07:04:45.679Z,20.77
2019-02-18T07:07:38.878Z,21.73
2019-02-18T07:10:24.184Z,19.10
2019-02-18T07:12:56.648Z,18.45
2019-02-18T07:15:25.530Z,19.05
2019-02-18T07:17:53.715Z,15.65
2019-02-18T07:20:21.913Z,16.40
2019-02-18T07:22:50.065Z,16.85
2019-02-18T07:25:18.886Z,15.83
2019-02-18T07:27:47.299Z,14.73
2019-02-18T07:30:16.221Z,15.28
2019-02-18T07:32:44.396Z,15.30
2019-02-18T07:35:13.594Z,15.18
2019-02-18T07:37:41.752Z,16.12
2019-02-18T07:40:10.324Z,15.60
2019-02-18T07:42:43.788Z,15.72
2019-02-18T07:45:11.923Z,14.90
2019-02-18T07:47:46.125Z,14.80
2019-02-18T07:50:20.735Z,14.65
2019-02-18T07:52:42.497Z,14.63
2019-02-18T07:55:11.681Z,15.30
2019-02-18T07:57:39.849Z,13.55
2019-02-18T08:00:10.403Z,14.23
2019-02-18T08:02:38.975Z,14.70
2019-02-18T08:05:07.431Z,13.35
2019-02-18T08:07:36.011Z,14.23
2019-02-18T08:10:11.855Z,14.00
2019-02-18T08:12:32.693Z,13.78
2019-02-18T08:15:00.858Z,14.10
2019-02-18T08:17:29.056Z,14.60
2019-02-18T08:19:57.197Z,14.43
2019-02-18T08:22:25.378Z,14.40
2019-02-18T08:24:53.825Z,14.98
2019-02-18T08:27:22.042Z,14.85
2019-02-18T08:29:50.822Z,15.75
2019-02-18T08:32:18.988Z,14.40
2019-02-18T08:34:47.491Z,14.85
2019-02-18T08:37:15.670Z,15.03
2019-02-18T08:39:44.126Z,14.63
2019-02-18T08:42:12.334Z,14.65
2019-02-18T08:44:40.475Z,15.60
2019-02-18T08:47:08.651Z,14.53
2019-02-18T08:49:36.779Z,15.40
2019-02-18T08:52:05.393Z,16.05
2019-02-18T08:54:33.577Z,14.40
2019-02-18T08:57:01.745Z,15.00
2019-02-18T08:59:30.556Z,14.68
2019-02-18T09:02:18.153Z,14.00
2019-02-18T09:04:46.333Z,14.33
2019-02-18T09:07:14.510Z,14.38
2019-02-18T09:09:42.692Z,15.10
2019-02-18T09:12:11.887Z,15.00
2019-02-18T09:14:40.078Z,14.90
2019-02-18T09:17:08.228Z,14.30
2019-02-18T09:19:36.432Z,13.53
2019-02-18T09:22:23.773Z,14.20
2019-02-18T09:25:01.261Z,14.70
2019-02-18T09:27:29.390Z,14.55
2019-02-18T09:29:57.578Z,14.40
2019-02-18T09:32:26.062Z,15.78
2019-02-18T09:35:01.555Z,13.45
2019-02-18T09:37:22.670Z,15.18
2019-02-18T09:39:52.186Z,13.37
2019-02-18T09:42:20.768Z,13.98
2019-02-18T09:44:48.971Z,13.87
2019-02-18T09:47:17.410Z,14.75
2019-02-18T09:49:45.612Z,13.60
2019-02-18T09:52:13.782Z,13.43
2019-02-18T09:54:41.977Z,13.98
2019-02-18T09:57:10.130Z,13.70
2019-02-18T09:59:38.549Z,13.57
2019-02-18T10:02:06.690Z,18.92
2019-02-18T10:04:34.805Z,13.55
2019-02-18T10:07:03.035Z,13.10
2019-02-18T10:09:31.477Z,13.58
2019-02-18T10:11:59.591Z,13.60
2019-02-18T10:14:28.695Z,13.62
2019-02-18T10:16:56.863Z,13.90
2019-02-18T10:19:25.038Z,14.10
2019-02-18T10:21:53.478Z,13.83
2019-02-18T10:24:22.626Z,13.73
2019-02-18T10:26:50.802Z,13.08
2019-02-18T10:29:19.530Z,13.40
2019-02-18T10:31:48.062Z,13.90
2019-02-18T10:34:16.505Z,13.22
2019-02-18T10:36:44.748Z,12.75
2019-02-18T10:39:12.897Z,13.35
2019-02-18T10:41:41.411Z,14.75
2019-02-18T10:44:09.632Z,13.68
2019-02-18T10:46:37.792Z,13.65
2019-02-18T10:49:18.715Z,13.95
2019-02-18T10:51:34.143Z,13.28
2019-02-18T10:54:02.353Z,13.48
2019-02-18T10:56:30.508Z,13.78
2019-02-18T10:58:59.302Z,13.90
2019-02-18T11:01:27.450Z,14.03
2019-02-18T11:03:55.622Z,13.62
2019-02-18T11:06:29.003Z,13.97
2019-02-18T11:08:58.230Z,13.85
2019-02-18T11:11:26.388Z,14.05
2019-02-18T11:13:54.528Z,13.22
2019-02-18T11:16:22.742Z,13.28
2019-02-18T11:18:51.187Z,13.85
2019-02-18T11:21:19.401Z,15.40
2019-02-18T11:23:48.862Z,14.90
2019-02-18T11:26:17.199Z,14.00
2019-02-18T11:28:45.354Z,15.17
2019-02-18T11:31:13.517Z,15.15
2019-02-18T11:33:41.701Z,15.40
2019-02-18T11:36:11.182Z,15.60
2019-02-18T11:38:39.381Z,16.03
2019-02-18T11:41:07.541Z,15.32
2019-02-18T11:43:36.738Z,14.90
2019-02-18T11:46:04.913Z,15.32
2019-02-18T11:48:33.366Z,14.87
2019-02-18T11:51:01.847Z,16.23
2019-02-18T11:53:30.044Z,15.50
2019-02-18T11:55:58.515Z,15.63
2019-02-18T11:58:26.969Z,14.87
2019-02-18T12:00:55.191Z,15.60
2019-02-18T12:03:24.069Z,15.32
2019-02-18T12:05:52.253Z,15.50
2019-02-18T12:08:20.847Z,15.65
2019-02-18T12:10:49.007Z,15.43
2019-02-18T12:13:17.190Z,16.48
2019-02-18T12:15:45.323Z,15.53
2019-02-18T12:18:13.922Z,16.25
2019-02-18T12:20:41.694Z,16.12
2019-02-18T12:23:09.876Z,16.65
2019-02-18T12:25:38.353Z,16.45
2019-02-18T12:28:06.550Z,16.50
2019-02-18T12:30:34.692Z,16.62
2019-02-18T12:33:02.892Z,17.00
2019-02-18T12:35:32.274Z,17.50
2019-02-18T12:38:01.556Z,16.97
2019-02-18T12:40:30.732Z,17.42
2019-02-18T12:43:00.907Z,16.37
2019-02-18T12:45:29.068Z,16.63
2019-02-18T12:47:57.250Z,16.93
2019-02-18T12:50:26.112Z,17.25
2019-02-18T12:52:54.302Z,16.48
2019-02-18T12:55:22.494Z,17.65
2019-02-18T12:57:51.679Z,17.57
2019-02-18T13:00:19.906Z,17.00
2019-02-18T13:02:48.116Z,18.75
2019-02-18T13:05:35.663Z,17.57
2019-02-18T13:08:05.866Z,17.12
2019-02-18T13:10:34.887Z,17.30
2019-02-18T13:13:02.220Z,18.77
2019-02-18T13:15:30.406Z,18.12
2019-02-18T13:17:58.560Z,17.35
2019-02-18T13:20:27.207Z,17.48
2019-02-18T13:22:55.434Z,17.37
2019-02-18T13:25:23.622Z,16.55
2019-02-18T13:27:51.760Z,16.52
2019-02-18T13:30:39.313Z,16.17
2019-02-18T13:33:07.467Z,16.23
2019-02-18T13:35:35.659Z,16.83
2019-02-18T13:38:03.813Z,17.65
2019-02-18T13:40:31.997Z,15.60
2019-02-18T13:43:00.144Z,15.55
2019-02-18T13:45:28.347Z,13.28
2019-02-18T13:47:57.518Z,14.23
2019-02-18T13:50:25.985Z,13.55
2019-02-18T13:52:54.186Z,13.03
2019-02-18T13:55:22.363Z,14.13
2019-02-18T13:57:50.563Z,14.90
2019-02-18T14:00:20.580Z,14.75
2019-02-18T14:02:49.215Z,15.43
2019-02-18T14:05:18.151Z,15.90
2019-02-18T14:07:46.304Z,14.95
2019-02-18T14:10:14.473Z,15.68
2019-02-18T14:12:42.649Z,15.10
2019-02-18T14:15:10.846Z,14.98
2019-02-18T14:17:40.304Z,15.85
2019-02-18T14:20:10.437Z,15.68
2019-02-18T14:22:38.630Z,15.70
2019-02-18T14:25:06.884Z,15.63
2019-02-18T14:27:35.605Z,16.45
2019-02-18T14:30:04.242Z,16.30
2019-02-18T14:32:33.151Z,16.02
2019-02-18T14:35:01.320Z,16.25
2019-02-18T14:37:29.798Z,16.07
2019-02-18T14:39:57.991Z,17.07
2019-02-18T14:42:26.145Z,15.80
2019-02-18T14:44:54.315Z,16.67
2019-02-18T14:47:22.522Z,15.93
2019-02-18T14:49:50.951Z,21.73
2019-02-18T14:52:19.069Z,16.65
2019-02-18T14:54:47.515Z,16.45
2019-02-18T14:57:16.250Z,16.30
2019-02-18T14:59:44.656Z,16.27
2019-02-18T15:02:13.815Z,15.77
2019-02-18T15:04:41.957Z,15.75
2019-02-18T15:07:11.170Z,16.65
2019-02-18T15:09:39.338Z,16.67
2019-02-18T15:12:07.539Z,19.07
2019-02-18T15:14:35.675Z,17.85
2019-02-18T15:17:03.851Z,17.48
2019-02-18T15:19:51.399Z,16.87
2019-02-18T15:22:19.946Z,16.75
2019-02-18T15:24:50.081Z,15.97
2019-02-18T15:27:18.256Z,16.27
2019-02-18T15:29:48.474Z,16.40
2019-02-18T15:32:16.648Z,17.20
2019-02-18T15:34:44.827Z,16.48
2019-02-18T15:37:13.917Z,17.50
2019-02-18T15:39:42.358Z,17.10
2019-02-18T15:42:11.508Z,16.32
2019-02-18T15:44:43.955Z,16.23
2019-02-18T15:47:12.138Z,17.27
2019-02-18T15:49:40.311Z,16.37
2019-02-18T15:52:08.893Z,15.90
2019-02-18T15:54:37.099Z,17.05
2019-02-18T15:57:05.251Z,16.45
2019-02-18T15:59:33.815Z,16.40
2019-02-18T16:02:02.010Z,16.42
2019-02-18T16:04:30.197Z,15.98
2019-02-18T16:06:58.602Z,15.85
2019-02-18T16:09:27.336Z,15.72
2019-02-18T16:11:55.512Z,16.87
2019-02-18T16:14:23.690Z,16.97
2019-02-18T16:16:51.861Z,16.75
2019-02-18T16:19:21.087Z,17.35
2019-02-18T16:21:49.894Z,16.10
2019-02-18T16:24:20.106Z,16.35
2019-02-18T16:26:46.299Z,15.43
2019-02-18T16:29:14.474Z,16.93
2019-02-18T16:31:42.648Z,17.45
2019-02-18T16:34:11.271Z,15.95
2019-02-18T16:36:39.493Z,16.90
2019-02-18T16:39:07.963Z,16.70
2019-02-18T16:41:36.303Z,16.83
2019-02-18T16:44:04.357Z,16.50
2019-02-18T16:46:32.558Z,17.42
2019-02-18T16:49:00.774Z,19.05
2019-02-18T16:51:28.971Z,19.32
2019-02-18T16:53:57.136Z,18.10
2019-02-18T16:56:25.312Z,17.27
2019-02-18T16:58:53.824Z,16.90
2019-02-18T17:01:22.709Z,16.55
2019-02-18T17:03:50.854Z,16.93
2019-02-18T17:06:19.111Z,16.15
2019-02-18T17:08:47.287Z,17.57
2019-02-18T17:11:16.511Z,16.62
2019-02-18T17:13:44.689Z,16.62
2019-02-18T17:16:14.890Z,15.93
2019-02-18T17:18:43.039Z,17.10
2019-02-18T17:21:11.245Z,16.40
2019-02-18T17:23:39.688Z,16.75
2019-02-18T17:26:07.914Z,16.47
2019-02-18T17:28:36.085Z,16.37
2019-02-18T17:31:04.250Z,18.20
2019-02-18T17:33:32.402Z,16.37
2019-02-18T17:36:00.711Z,17.40
2019-02-18T17:38:29.257Z,17.12
2019-02-18T17:40:57.467Z,16.30
2019-02-18T17:43:26.002Z,16.97
2019-02-18T17:45:54.493Z,15.43
2019-02-18T17:48:22.681Z,17.23
2019-02-18T17:50:52.898Z,17.02
2019-02-18T17:53:22.096Z,16.50
2019-02-18T17:55:50.276Z,15.48
2019-02-18T17:58:18.416Z,15.23
2019-02-18T18:00:48.585Z,16.35
2019-02-18T18:03:17.136Z,15.63
2019-02-18T18:05:45.321Z,13.72
2019-02-18T18:08:13.491Z,13.83
2019-02-18T18:10:41.663Z,15.30
2019-02-18T18:13:10.335Z,15.20
2019-02-18T18:15:38.427Z,15.90
2019-02-18T18:18:08.669Z,14.23
2019-02-18T18:20:36.795Z,15.07
2019-02-18T18:23:07.113Z,15.18
2019-02-18T18:25:35.684Z,16.27
2019-02-18T18:28:03.886Z,16.80
2019-02-18T18:30:32.639Z,15.60
2019-02-18T18:33:00.856Z,15.25
2019-02-18T18:35:29.485Z,15.53
2019-02-18T18:37:57.712Z,15.13
2019-02-18T18:40:27.280Z,16.30
2019-02-18T18:42:56.393Z,15.38
2019-02-18T18:45:24.580Z,15.15
2019-02-18T18:47:52.749Z,16.60
2019-02-18T18:50:20.924Z,16.52
2019-02-18T18:52:49.117Z,15.90
2019-02-18T18:55:18.330Z,15.75
2019-02-18T18:57:46.471Z,15.45
2019-02-18T19:00:17.126Z,15.43
2019-02-18T19:02:45.288Z,15.83
2019-02-18T19:05:13.485Z,15.43
2019-02-18T19:07:41.645Z,16.60
2019-02-18T19:10:09.807Z,16.13
2019-02-18T19:12:38.021Z,15.85
2019-02-18T19:15:07.766Z,16.95
2019-02-18T19:17:36.120Z,16.23
2019-02-18T19:20:04.394Z,16.93
2019-02-18T19:22:32.607Z,16.32
2019-02-18T19:25:01.189Z,16.87
2019-02-18T19:27:30.315Z,16.75
2019-02-18T19:29:58.989Z,15.90
2019-02-18T19:32:27.149Z,16.82
2019-02-18T19:34:55.316Z,16.75
2019-02-18T19:37:23.496Z,17.98
2019-02-18T19:39:52.296Z,18.32
2019-02-18T19:42:20.449Z,18.45
2019-02-18T19:44:53.217Z,18.87
2019-02-18T19:47:21.404Z,18.42
2019-02-18T19:49:49.589Z,20.27
2019-02-18T19:52:17.740Z,20.37
2019-02-18T19:54:46.324Z,18.35
2019-02-18T19:57:14.571Z,19.40
2019-02-18T19:59:42.786Z,20.80
2019-02-18T20:02:13.011Z,22.48
2019-02-18T20:04:41.459Z,21.07
2019-02-18T20:07:09.677Z,22.42
2019-02-18T20:09:38.128Z,21.95
2019-02-18T20:12:06.326Z,23.42
2019-02-18T20:14:34.495Z,24.00
2019-02-18T20:17:02.994Z,25.23
2019-02-18T20:19:31.536Z,24.37
2019-02-18T20:22:00.140Z,25.95
2019-02-18T20:24:28.336Z,26.05
2019-02-18T20:26:56.477Z,25.95
2019-02-18T20:29:24.660Z,26.00
2019-02-18T20:31:52.789Z,25.97
2019-02-18T20:34:21.001Z,24.12
2019-02-18T20:36:50.209Z,45.88
2019-02-18T20:39:19.104Z,25.32
2019-02-18T20:41:47.300Z,26.13
2019-02-18T20:44:15.431Z,26.90
2019-02-18T20:46:43.888Z,27.37
2019-02-18T20:49:12.098Z,26.13
2019-02-18T20:51:40.274Z,28.38
2019-02-18T20:54:08.439Z,24.82
2019-02-18T20:56:36.569Z,26.55
2019-02-18T20:59:04.789Z,24.82
2019-02-18T21:01:32.962Z,25.05
2019-02-18T21:04:01.452Z,24.52
2019-02-18T21:06:30.543Z,24.32
2019-02-18T21:08:58.706Z,24.63
2019-02-18T21:11:26.874Z,24.20
2019-02-18T21:13:55.052Z,25.15
2019-02-18T21:16:23.244Z,24.80
2019-02-18T21:18:51.393Z,24.80
2019-02-18T21:21:19.643Z,25.30
2019-02-18T21:23:47.855Z,25.68
2019-02-18T21:26:16.033Z,25.50
2019-02-18T21:28:44.465Z,25.27
2019-02-18T21:31:12.671Z,24.87
2019-02-18T21:33:41.290Z,25.57
2019-02-18T21:36:09.448Z,24.15
2019-02-18T21:38:37.793Z,24.20
2019-02-18T21:41:06.579Z,23.73
2019-02-18T21:43:34.783Z,21.93
2019-02-18T21:46:02.943Z,23.92
2019-02-18T21:48:31.091Z,23.05
2019-02-18T21:50:59.295Z,23.12
2019-02-18T21:53:28.488Z,23.55
2019-02-18T21:55:56.952Z,22.50
2019-02-18T21:58:25.155Z,23.00
2019-02-18T22:00:53.318Z,22.62
2019-02-18T22:03:21.779Z,23.42
2019-02-18T22:05:50.999Z,24.37
2019-02-18T22:08:19.176Z,23.05
2019-02-18T22:10:47.346Z,23.98
2019-02-18T22:13:15.517Z,26.17
2019-02-18T22:15:43.696Z,25.27
2019-02-18T22:18:11.869Z,24.82
2019-02-18T22:20:39.965Z,25.50
2019-02-18T22:23:08.103Z,25.95
2019-02-18T22:25:37.133Z,22.37
2019-02-18T22:28:05.284Z,22.10
2019-02-18T22:30:33.439Z,21.60
2019-02-18T22:33:01.621Z,21.02
2019-02-18T22:35:29.754Z,21.93
2019-02-18T22:37:58.500Z,20.65
2019-02-18T22:40:26.688Z,19.95
2019-02-18T22:42:55.112Z,20.10
2019-02-18T22:45:23.213Z,20.60
2019-02-18T22:47:52.412Z,19.32
2019-02-18T22:50:20.566Z,18.80
2019-02-18T22:52:48.761Z,19.57
2019-02-18T22:55:17.234Z,19.85
2019-02-18T22:57:45.395Z,19.55
2019-02-18T23:00:30.598Z,20.10
2019-02-18T23:02:59.766Z,19.62
2019-02-18T23:05:28.208Z,20.35
2019-02-18T23:07:56.714Z,20.27
2019-02-18T23:10:25.286Z,19.50
2019-02-18T23:12:53.761Z,19.23
2019-02-18T23:15:22.358Z,19.30
2019-02-18T23:17:50.554Z,19.52
2019-02-18T23:20:18.718Z,18.97
2019-02-18T23:22:48.173Z,18.75
2019-02-18T23:25:16.577Z,20.27
2019-02-18T23:27:48.054Z,20.25
2019-02-18T23:30:16.264Z,19.62
2019-02-18T23:32:44.388Z,20.23
2019-02-18T23:35:12.588Z,20.15
2019-02-18T23:37:41.604Z,20.75
2019-02-18T23:40:09.754Z,19.35
2019-02-18T23:42:37.926Z,19.80
2019-02-18T23:45:06.101Z,19.62
2019-02-18T23:47:34.261Z,18.37
2019-02-18T23:50:02.441Z,18.55
2019-02-18T23:52:30.615Z,19.42
2019-02-18T23:54:58.782Z,19.35
2019-02-18T23:57:26.951Z,18.75
2019-02-18T23:59:55.125Z,18.15
